createdAt,value
2019-05-10T00:00:51.310Z,10.50
2019-05-10T00:05:15.442Z,10.50
2019-05-10T00:09:21.113Z,10.40
2019-05-10T00:13:28.989Z,10.40
2019-05-10T00:17:35.205Z,10.40
2019-05-10T00:21:41.457Z,10.40
2019-05-10T00:25:51.213Z,10.30
2019-05-10T00:29:56.004Z,10.20
2019-05-10T00:34:02.502Z,10.10
2019-05-10T00:38:08.767Z,10.10
2019-05-10T00:42:15.014Z,10.00
2019-05-10T00:46:21.350Z,9.90
2019-05-10T00:50:27.614Z,10.00
2019-05-10T00:54:34.525Z,10.00
2019-05-10T00:58:40.778Z,9.90
2019-05-10T01:02:47.077Z,9.90
2019-05-10T01:06:56.321Z,10.00
2019-05-10T01:11:01.652Z,9.90
2019-05-10T01:15:08.266Z,10.00
2019-05-10T01:19:14.507Z,10.00
2019-05-10T01:23:20.733Z,10.00
2019-05-10T01:27:26.981Z,10.00
2019-05-10T01:31:33.218Z,9.90
2019-05-10T01:35:39.463Z,9.90
2019-05-10T01:39:45.720Z,9.90
2019-05-10T01:43:52.687Z,9.90
2019-05-10T01:47:58.850Z,9.80
2019-05-10T01:52:05.105Z,9.80
2019-05-10T01:56:11.347Z,9.90
2019-05-10T02:00:17.830Z,9.80
2019-05-10T02:04:24.093Z,9.90
2019-05-10T02:08:30.348Z,9.80
2019-05-10T02:12:36.587Z,9.70
2019-05-10T02:16:43.103Z,9.70
2019-05-10T02:20:49.435Z,9.70
2019-05-10T02:24:55.865Z,9.70
2019-05-10T02:29:02.171Z,9.80
2019-05-10T02:33:08.406Z,9.70
2019-05-10T02:37:15.014Z,9.70
2019-05-10T02:41:21.290Z,9.60
2019-05-10T02:45:27.613Z,9.70
2019-05-10T02:49:34.918Z,9.60
2019-05-10T02:53:41.152Z,9.60
2019-05-10T02:57:48.038Z,9.60
2019-05-10T03:01:56.973Z,9.50
2019-05-10T03:06:04.227Z,9.60
2019-05-10T03:10:12.016Z,9.50
2019-05-10T03:14:19.283Z,9.50
2019-05-10T03:18:28.327Z,9.50
2019-05-10T03:22:38.622Z,9.50
2019-05-10T03:26:50.634Z,9.50
2019-05-10T03:30:54.540Z,9.40
2019-05-10T03:35:00.855Z,9.40
2019-05-10T03:39:07.463Z,9.50
2019-05-10T03:43:13.705Z,9.50
2019-05-10T03:47:19.947Z,9.60
2019-05-10T03:51:26.190Z,9.60
2019-05-10T03:55:32.996Z,9.60
2019-05-10T03:59:39.268Z,9.70
2019-05-10T04:03:45.498Z,9.80
2019-05-10T04:07:51.746Z,9.80
2019-05-10T04:11:58.025Z,9.80
2019-05-10T04:16:04.362Z,9.80
2019-05-10T04:20:10.922Z,9.90
2019-05-10T04:24:17.216Z,10.00
2019-05-10T04:28:30.019Z,10.10
2019-05-10T04:32:37.936Z,10.10
2019-05-10T04:36:44.200Z,10.20
2019-05-10T04:40:51.350Z,10.20
2019-05-10T04:44:57.620Z,10.50
2019-05-10T04:49:03.836Z,10.90
2019-05-10T04:53:10.107Z,11.30
2019-05-10T04:57:16.365Z,11.80
2019-05-10T05:01:22.632Z,12.80
2019-05-10T05:05:28.886Z,14.30
2019-05-10T05:09:35.143Z,15.20
2019-05-10T05:13:41.403Z,14.20
2019-05-10T05:17:47.658Z,13.30
2019-05-10T05:21:53.962Z,12.60
2019-05-10T05:26:00.190Z,12.00
2019-05-10T05:30:07.940Z,11.60
2019-05-10T05:34:14.190Z,11.30
2019-05-10T05:38:20.565Z,11.10
2019-05-10T05:42:28.057Z,11.00
2019-05-10T05:46:34.970Z,10.90
2019-05-10T05:50:41.238Z,10.90
2019-05-10T05:54:47.518Z,10.80
2019-05-10T05:58:54.749Z,10.80
2019-05-10T06:03:00.998Z,10.80
2019-05-10T06:07:08.326Z,10.90
2019-05-10T06:11:14.563Z,10.90
2019-05-10T06:15:23.158Z,10.90
2019-05-10T06:19:30.659Z,10.90
2019-05-10T06:23:37.077Z,10.90
2019-05-10T06:27:44.066Z,10.90
2019-05-10T06:31:50.369Z,10.90
2019-05-10T06:35:56.617Z,10.90
2019-05-10T06:40:02.896Z,10.90
2019-05-10T06:44:09.149Z,10.80
2019-05-10T06:48:25.789Z,10.90
2019-05-10T06:52:28.025Z,10.90
2019-05-10T06:56:31.151Z,10.80
2019-05-10T07:00:38.018Z,10.80
2019-05-10T07:04:45.340Z,10.90
2019-05-10T07:08:57.643Z,11.20
2019-05-10T07:13:03.675Z,11.80
2019-05-10T07:17:07.529Z,12.30
2019-05-10T07:21:14.398Z,12.70
2019-05-10T07:25:20.640Z,13.20
2019-05-10T07:29:29.988Z,13.80
2019-05-10T07:33:37.344Z,14.90
2019-05-10T07:37:47.801Z,16.40
2019-05-10T07:41:51.943Z,18.40
2019-05-10T07:46:06.406Z,23.00
2019-05-10T07:50:09.707Z,25.70
2019-05-10T07:54:15.272Z,25.30
2019-05-10T07:58:21.562Z,25.10
2019-05-10T08:02:27.797Z,25.30
2019-05-10T08:06:44.055Z,27.30
2019-05-10T08:10:41.991Z,31.10
2019-05-10T08:14:50.140Z,28.50
2019-05-10T08:19:00.914Z,24.10
2019-05-10T08:23:04.274Z,21.40
2019-05-10T08:27:14.251Z,24.30
2019-05-10T08:31:18.963Z,28.70
2019-05-10T08:35:25.287Z,28.90
2019-05-10T08:39:34.804Z,26.50
2019-05-10T08:43:40.821Z,23.30
2019-05-10T08:47:47.303Z,20.30
2019-05-10T08:51:53.633Z,18.80
2019-05-10T08:56:01.938Z,18.20
2019-05-10T09:00:09.073Z,17.80
2019-05-10T09:04:15.654Z,17.80
2019-05-10T09:08:27.693Z,18.00
2019-05-10T09:12:29.811Z,19.30
2019-05-10T09:16:43.358Z,23.30
2019-05-10T09:20:44.005Z,27.10
2019-05-10T09:24:50.259Z,29.90
2019-05-10T09:28:57.844Z,31.40
2019-05-10T09:33:08.496Z,30.50
2019-05-10T09:37:14.288Z,25.50
2019-05-10T09:41:22.428Z,21.60
2019-05-10T09:45:28.123Z,18.70
2019-05-10T09:49:34.435Z,17.00
2019-05-10T09:53:40.693Z,17.60
2019-05-10T09:57:48.028Z,18.70
2019-05-10T10:01:54.389Z,19.70
2019-05-10T10:06:05.822Z,21.50
2019-05-10T10:10:12.679Z,26.40
2019-05-10T10:14:17.919Z,29.60
2019-05-10T10:18:25.549Z,27.00
2019-05-10T10:22:31.854Z,24.40
2019-05-10T10:26:38.113Z,27.80
2019-05-10T10:30:44.511Z,28.80
2019-05-10T10:34:54.601Z,27.90
2019-05-10T10:38:59.657Z,24.30
2019-05-10T10:43:07.431Z,22.50
2019-05-10T10:47:13.991Z,22.20
2019-05-10T10:51:20.236Z,20.70
2019-05-10T10:55:30.535Z,21.50
2019-05-10T10:59:34.482Z,21.90
2019-05-10T11:03:40.726Z,21.30
2019-05-10T11:07:47.807Z,21.60
2019-05-10T11:11:54.283Z,21.10
2019-05-10T11:16:09.716Z,21.10
2019-05-10T11:20:11.315Z,20.70
2019-05-10T11:24:20.033Z,20.50
2019-05-10T11:28:24.358Z,19.90
2019-05-10T11:32:31.503Z,20.00
2019-05-10T11:36:40.551Z,20.40
2019-05-10T11:40:47.212Z,20.40
2019-05-10T11:44:54.719Z,20.80
2019-05-10T11:49:01.844Z,20.80
2019-05-10T11:53:13.222Z,20.90
2019-05-10T11:57:16.090Z,20.40
2019-05-10T12:01:22.416Z,19.60
2019-05-10T12:05:28.757Z,19.60
2019-05-10T12:09:35.002Z,20.30
2019-05-10T12:13:41.379Z,21.10
2019-05-10T12:17:55.090Z,21.60
2019-05-10T12:21:57.194Z,21.70
2019-05-10T12:27:12.617Z,21.10
2019-05-10T12:30:15.795Z,20.40
2019-05-10T12:34:20.862Z,19.20
2019-05-10T12:38:29.271Z,18.40
2019-05-10T12:42:35.141Z,18.00
2019-05-10T12:46:42.418Z,17.90
2019-05-10T12:50:51.591Z,18.10
2019-05-10T12:54:57.082Z,18.00
2019-05-10T12:59:03.251Z,18.20
2019-05-10T13:03:12.926Z,18.60
2019-05-10T13:07:17.348Z,19.00
2019-05-10T13:11:25.426Z,20.10
2019-05-10T13:15:33.318Z,20.10
2019-05-10T13:19:39.305Z,19.50
2019-05-10T13:23:45.954Z,19.00
2019-05-10T13:27:52.173Z,18.80
2019-05-10T13:31:59.430Z,18.90
2019-05-10T13:36:05.674Z,19.00
2019-05-10T13:40:12.362Z,18.90
2019-05-10T13:44:19.507Z,18.10
2019-05-10T13:48:26.779Z,17.90
2019-05-10T13:52:37.518Z,17.90
2019-05-10T13:56:45.210Z,17.50
2019-05-10T14:00:49.295Z,17.50
2019-05-10T14:04:55.534Z,17.50
2019-05-10T14:09:01.841Z,17.70
2019-05-10T14:13:08.706Z,17.70
2019-05-10T14:17:14.949Z,17.20
2019-05-10T14:21:21.350Z,16.70
2019-05-10T14:25:36.342Z,16.40
2019-05-10T14:29:37.029Z,16.30
2019-05-10T14:33:49.600Z,16.40
2019-05-10T14:37:51.400Z,16.50
2019-05-10T14:41:57.638Z,16.70
2019-05-10T14:46:04.043Z,16.40
2019-05-10T14:50:10.570Z,15.50
2019-05-10T14:54:16.800Z,14.60
2019-05-10T14:58:24.255Z,14.00
2019-05-10T15:02:30.469Z,13.90
2019-05-10T15:06:38.865Z,13.90
2019-05-10T15:10:44.667Z,14.20
2019-05-10T15:14:50.890Z,14.30
2019-05-10T15:18:57.138Z,14.80
2019-05-10T15:23:04.413Z,15.60
2019-05-10T15:27:10.683Z,16.00
2019-05-10T15:31:16.922Z,16.10
2019-05-10T15:35:23.187Z,16.00
2019-05-10T15:39:30.485Z,16.10
2019-05-10T15:43:36.830Z,16.10
2019-05-10T15:47:51.419Z,16.00
2019-05-10T15:51:56.752Z,15.80
2019-05-10T15:56:03.907Z,15.50
2019-05-10T16:00:08.836Z,15.50
2019-05-10T16:04:15.062Z,15.80
2019-05-10T16:08:24.055Z,16.20
2019-05-10T16:12:29.178Z,16.20
2019-05-10T16:16:37.662Z,16.00
2019-05-10T16:20:43.273Z,15.90
2019-05-10T16:24:49.506Z,15.80
2019-05-10T16:29:02.008Z,15.70
2019-05-10T16:33:03.626Z,15.70
2019-05-10T16:37:09.865Z,15.50
2019-05-10T16:41:16.174Z,15.50
2019-05-10T16:45:22.421Z,15.30
2019-05-10T16:49:28.679Z,15.20
2019-05-10T16:53:37.851Z,15.10
2019-05-10T16:57:43.071Z,15.00
2019-05-10T17:01:49.337Z,14.90
2019-05-10T17:05:58.746Z,14.80
2019-05-10T17:10:05.261Z,14.70
2019-05-10T17:14:12.707Z,14.70
2019-05-10T17:18:20.278Z,14.60
2019-05-10T17:22:27.356Z,14.60
2019-05-10T17:26:33.593Z,14.70
2019-05-10T17:30:39.884Z,14.60
2019-05-10T17:34:46.153Z,14.30
2019-05-10T17:38:55.484Z,14.00
2019-05-10T17:43:00.355Z,13.70
2019-05-10T17:47:06.584Z,13.50
2019-05-10T17:51:12.866Z,13.30
2019-05-10T17:55:19.373Z,13.20
2019-05-10T17:59:25.746Z,13.00
2019-05-10T18:03:32.133Z,12.80
2019-05-10T18:07:38.361Z,12.70
2019-05-10T18:11:45.001Z,12.60
2019-05-10T18:15:51.369Z,12.50
2019-05-10T18:20:02.171Z,12.40
2019-05-10T18:24:06.699Z,12.30
2019-05-10T18:28:17.037Z,12.30
2019-05-10T18:32:21.262Z,12.30
2019-05-10T18:36:50.538Z,12.20
2019-05-10T18:40:37.865Z,12.20
2019-05-10T18:44:45.804Z,12.10
2019-05-10T18:48:52.013Z,12.00
2019-05-10T18:52:58.266Z,11.90
2019-05-10T18:57:11.130Z,11.70
2019-05-10T19:01:12.477Z,11.50
2019-05-10T19:05:18.740Z,11.30
2019-05-10T19:09:25.070Z,11.00
2019-05-10T19:13:34.307Z,10.70
2019-05-10T19:17:40.474Z,10.50
2019-05-10T19:21:47.066Z,10.40
2019-05-10T19:25:53.958Z,10.20
2019-05-10T19:30:01.531Z,10.00
2019-05-10T19:34:09.005Z,9.90
2019-05-10T19:38:15.707Z,9.80
2019-05-10T19:42:22.046Z,9.70
2019-05-10T19:46:30.083Z,9.60
2019-05-10T19:50:38.455Z,9.50
2019-05-10T19:54:44.850Z,9.50
2019-05-10T19:58:51.247Z,9.30
2019-05-10T20:02:57.519Z,9.30
2019-05-10T20:07:04.290Z,9.20
2019-05-10T20:11:10.541Z,9.00
2019-05-10T20:15:17.018Z,9.00
2019-05-10T20:19:23.254Z,8.90
2019-05-10T20:23:29.487Z,9.00
2019-05-10T20:27:35.730Z,9.10
2019-05-10T20:31:41.977Z,9.20
2019-05-10T20:35:48.238Z,9.30
2019-05-10T20:39:54.550Z,9.50
2019-05-10T20:44:00.792Z,9.60
2019-05-10T20:48:07.076Z,9.80
2019-05-10T20:52:14.345Z,10.00
2019-05-10T20:56:20.608Z,10.10
2019-05-10T21:00:26.935Z,10.30
2019-05-10T21:04:33.173Z,10.30
2019-05-10T21:08:39.432Z,10.20
2019-05-10T21:12:45.703Z,10.00
2019-05-10T21:16:51.952Z,9.80
2019-05-10T21:20:58.207Z,9.70
2019-05-10T21:25:06.562Z,9.60
2019-05-10T21:29:12.818Z,9.50
2019-05-10T21:33:19.053Z,9.60
2019-05-10T21:37:25.322Z,9.50
2019-05-10T21:41:31.662Z,9.60
2019-05-10T21:45:37.959Z,9.60
2019-05-10T21:49:44.192Z,9.50
2019-05-10T21:53:51.832Z,9.50
2019-05-10T21:57:58.118Z,9.40
2019-05-10T22:02:04.817Z,9.40
2019-05-10T22:06:12.161Z,9.30
2019-05-10T22:10:18.455Z,9.30
2019-05-10T22:14:24.714Z,9.30
2019-05-10T22:18:32.741Z,9.30
2019-05-10T22:22:39.067Z,9.20
2019-05-10T22:26:45.346Z,9.20
2019-05-10T22:30:51.580Z,9.20
2019-05-10T22:34:57.833Z,9.20
2019-05-10T22:39:07.696Z,9.10
2019-05-10T22:43:13.646Z,9.00
2019-05-10T22:47:19.896Z,8.90
2019-05-10T22:51:26.113Z,8.90
2019-05-10T22:55:32.378Z,8.80
2019-05-10T22:59:38.613Z,8.70
2019-05-10T23:03:44.910Z,8.60
2019-05-10T23:07:51.169Z,8.40
2019-05-10T23:11:58.994Z,8.30
2019-05-10T23:16:05.381Z,8.30
2019-05-10T23:20:12.270Z,8.30
2019-05-10T23:24:20.911Z,8.20
2019-05-10T23:28:27.246Z,8.10
2019-05-10T23:32:33.490Z,8.10
2019-05-10T23:36:39.722Z,8.10
2019-05-10T23:40:46.082Z,8.10
2019-05-10T23:44:52.332Z,8.00
2019-05-10T23:48:58.568Z,7.80
2019-05-10T23:53:04.812Z,7.70
2019-05-10T23:57:11.047Z,7.60
